< < Back
Terminal Aerodrome Forecast


Current Version              Previous Versions:   1  2  3  4  5  6  7  8  9  

Terminal Aerodrome Forecast

739
FTUS44 KBMX 222328
TAFANB
TAF
KANB 222328Z 2300/2324 18004KT P6SM VCTS BKN050CB
     FM230200 VRB03KT P6SM BKN250
      TEMPO 2309/2313 4SM BR
     FM231500 22003KT P6SM BKN250
     FM231800 21006KT P6SM VCTS BKN050CB=



Latest METAR

781
SAUS70 KWBC 231700 RRB
MTRANB
METAR KANB 231653Z AUTO 10005KT 10SM FEW055 FEW065 31/23 A3002 RMK AO2
SLP154 T03110233


USA.gov is the U.S. government's official web portal to all federal, state and local government web resources and services.